Time;durP1;ratioP1;P1;durP2;ratioP2;P2;SDS_P1;SDS_P2;PMS_P1;PMS_P2;Temp;Humidity;BMP_temperature;BMP_pressure;BME280_temperature;BME280_humidity;BME280_pressure;Samples;Min_cycle;Max_cycle;Signal;HPM_P1;HPM_P2
2022/08/05 00:01:54;;;;;;;4.32;2.40;;;23.30;79.90;;;;;;4415710;32;20092;-67
2022/08/05 00:04:21;;;;;;;3.65;2.30;;;23.60;78.30;;;;;;4421449;32;19958;-67
2022/08/05 00:06:47;;;;;;;3.60;2.45;;;23.50;81.00;;;;;;4419538;32;19994;-67
2022/08/05 00:09:14;;;;;;;3.70;2.30;;;23.40;82.70;;;;;;4417293;32;19991;-67
2022/08/05 00:11:41;;;;;;;2.58;2.00;;;23.40;83.60;;;;;;4421287;32;19953;-67
2022/08/05 00:14:08;;;;;;;2.85;2.10;;;23.30;84.20;;;;;;4421008;32;19964;-67
2022/08/05 00:16:34;;;;;;;3.28;2.30;;;23.30;81.70;;;;;;4420926;32;19959;-67
2022/08/05 00:19:02;;;;;;;4.12;2.22;;;23.30;80.10;;;;;;4418465;32;19960;-67
2022/08/05 00:21:29;;;;;;;3.12;2.70;;;23.30;85.00;;;;;;4421123;32;19992;-67
2022/08/05 00:23:56;;;;;;;2.83;2.00;;;23.50;79.60;;;;;;4419453;32;20013;-67
2022/08/05 00:26:22;;;;;;;2.58;2.25;;;23.60;79.10;;;;;;4420088;32;19977;-67
2022/08/05 00:28:50;;;;;;;3.37;2.17;;;23.50;82.20;;;;;;4413978;32;19973;-67
2022/08/05 00:31:16;;;;;;;4.97;2.20;;;23.40;82.50;;;;;;4417327;32;19958;-67
2022/08/05 00:33:43;;;;;;;3.37;1.95;;;23.40;81.90;;;;;;4416000;32;19976;-67
2022/08/05 00:36:12;;;;;;;3.05;2.10;;;23.30;82.90;;;;;;4419040;32;19989;-67
2022/08/05 00:38:39;;;;;;;5.90;2.40;;;23.20;83.30;;;;;;4420803;32;20008;-67
2022/08/05 00:41:06;;;;;;;3.17;1.92;;;23.00;82.80;;;;;;4421139;32;19969;-67
2022/08/05 00:43:33;;;;;;;2.78;2.12;;;23.00;85.30;;;;;;4420904;32;19974;-67
2022/08/05 00:46:00;;;;;;;2.80;2.30;;;22.90;85.90;;;;;;4416975;32;19968;-67
2022/08/05 00:48:27;;;;;;;4.00;2.40;;;22.80;86.00;;;;;;4412033;32;19961;-66
2022/08/05 00:50:54;;;;;;;4.90;2.60;;;22.70;84.50;;;;;;4415185;32;20004;-67
2022/08/05 00:53:24;;;;;;;3.50;2.35;;;22.70;85.20;;;;;;4420619;32;19955;-67
2022/08/05 00:55:51;;;;;;;5.60;2.50;;;22.80;83.20;;;;;;4417201;32;19961;-66
2022/08/05 00:58:18;;;;;;;3.45;2.37;;;23.10;81.70;;;;;;4417157;32;19973;-66
2022/08/05 01:00:46;;;;;;;4.47;2.50;;;23.30;82.60;;;;;;4420759;32;20134;-67
2022/08/05 01:03:13;;;;;;;3.87;2.50;;;23.20;83.00;;;;;;4420602;32;19959;-67
2022/08/05 01:05:40;;;;;;;3.08;2.22;;;23.00;86.20;;;;;;4420508;32;19993;-66
2022/08/05 01:08:06;;;;;;;4.37;2.42;;;22.90;85.20;;;;;;4420314;32;19965;-67
2022/08/05 01:10:41;;;;;;;5.53;3.58;;;22.70;85.40;;;;;;4417809;32;20006;-66
2022/08/05 01:13:16;;;;;;;7.80;2.83;;;22.60;85.20;;;;;;4411384;32;20121;-66
2022/08/05 01:15:48;;;;;;;3.85;2.35;;;22.60;85.40;;;;;;4416156;32;20029;-66
2022/08/05 01:18:22;;;;;;;4.62;2.75;;;22.50;86.70;;;;;;4420227;32;19956;-66
2022/08/05 01:20:59;;;;;;;3.22;2.15;;;22.40;87.30;;;;;;4417032;32;19958;-66
2022/08/05 01:23:39;;;;;;;5.22;2.25;;;22.30;88.00;;;;;;4420067;32;19968;-66
2022/08/05 01:26:21;;;;;;;4.10;2.92;;;22.20;88.30;;;;;;4419676;32;19991;-67
2022/08/05 01:28:54;;;;;;;4.37;2.80;;;22.20;87.90;;;;;;4420482;32;19961;-66
2022/08/05 01:31:27;;;;;;;4.68;2.72;;;22.20;86.50;;;;;;4419664;32;20077;-66
2022/08/05 01:34:00;;;;;;;4.80;2.87;;;22.20;88.60;;;;;;4420306;32;20005;-67
2022/08/05 01:36:32;;;;;;;4.87;2.90;;;22.20;88.10;;;;;;4420360;32;19963;-67
2022/08/05 01:38:59;;;;;;;7.62;2.92;;;22.00;89.20;;;;;;4420091;32;19986;-66
2022/08/05 01:41:29;;;;;;;4.05;3.30;;;22.00;89.10;;;;;;4419873;32;19954;-67
2022/08/05 01:43:57;;;;;;;4.15;3.10;;;22.10;86.70;;;;;;4417834;32;19991;-66
2022/08/05 01:46:25;;;;;;;4.90;3.70;;;22.50;85.00;;;;;;4419799;32;19974;-66
2022/08/05 01:48:54;;;;;;;4.03;3.03;;;22.60;84.80;;;;;;4420139;32;19986;-66
2022/08/05 01:51:23;;;;;;;4.53;3.45;;;22.60;85.20;;;;;;4418746;32;19988;-66
2022/08/05 01:53:52;;;;;;;4.95;3.25;;;22.70;84.60;;;;;;4414438;32;19963;-66
2022/08/05 01:56:21;;;;;;;5.22;3.22;;;22.80;84.90;;;;;;4417772;32;19960;-66
2022/08/05 01:58:51;;;;;;;5.28;3.15;;;22.80;85.50;;;;;;4419937;32;19954;-66
2022/08/05 02:01:21;;;;;;;5.10;3.20;;;22.80;86.10;;;;;;4420002;32;20045;-66
2022/08/05 02:03:51;;;;;;;4.75;3.37;;;22.70;87.10;;;;;;4414502;32;19991;-67
2022/08/05 02:06:18;;;;;;;4.55;3.15;;;22.80;86.30;;;;;;4418065;32;19958;-66
2022/08/05 02:08:45;;;;;;;4.32;3.17;;;22.70;87.10;;;;;;4419074;32;19972;-66
2022/08/05 02:11:15;;;;;;;4.47;3.20;;;22.70;87.70;;;;;;4415547;32;20100;-66
2022/08/05 02:13:46;;;;;;;5.65;3.30;;;22.70;85.70;;;;;;4419999;32;20136;-67
2022/08/05 02:16:21;;;;;;;6.57;3.12;;;22.90;85.00;;;;;;4412633;32;19961;-66
2022/08/05 02:18:50;;;;;;;4.62;3.42;;;22.80;86.90;;;;;;4410160;32;19959;-66
2022/08/05 02:21:21;;;;;;;6.53;3.55;;;22.80;87.20;;;;;;4416367;32;19991;-66
2022/08/05 02:23:52;;;;;;;5.07;3.07;;;22.70;86.40;;;;;;4413864;32;19963;-66
2022/08/05 02:26:23;;;;;;;4.05;2.70;;;22.70;84.90;;;;;;4414128;32;19992;-66
2022/08/05 02:28:51;;;;;;;5.17;3.37;;;22.70;84.80;;;;;;4417567;32;19966;-67
2022/08/05 02:31:23;;;;;;;4.25;3.10;;;22.60;86.70;;;;;;4418179;32;19959;-66
2022/08/05 02:33:54;;;;;;;3.75;3.00;;;22.60;85.90;;;;;;4419672;32;19956;-66
2022/08/05 02:36:23;;;;;;;6.25;3.92;;;22.60;87.80;;;;;;4419663;32;19963;-66
2022/08/05 02:38:52;;;;;;;5.75;3.37;;;22.30;89.70;;;;;;4415511;32;19987;-66
2022/08/05 02:41:21;;;;;;;5.20;3.50;;;22.30;89.60;;;;;;4414922;32;19972;-67
2022/08/05 02:43:49;;;;;;;5.57;3.40;;;22.50;87.40;;;;;;4420031;32;19996;-66
2022/08/05 02:46:17;;;;;;;7.00;3.90;;;22.70;85.20;;;;;;4419570;32;19956;-66
2022/08/05 02:48:46;;;;;;;6.95;3.30;;;22.70;87.00;;;;;;4421966;32;19987;-67
2022/08/05 02:51:15;;;;;;;6.43;3.30;;;22.50;88.40;;;;;;4422609;32;19993;-66
2022/08/05 02:53:42;;;;;;;4.75;2.85;;;22.50;87.30;;;;;;4412594;32;19955;-66
2022/08/05 02:56:11;;;;;;;4.75;3.00;;;22.60;86.10;;;;;;4422541;32;19956;-66
2022/08/05 02:58:39;;;;;;;4.95;3.15;;;22.80;85.40;;;;;;4419341;32;19962;-66
2022/08/05 03:01:07;;;;;;;4.50;3.15;;;23.00;84.60;;;;;;4416404;32;19958;-66
2022/08/05 03:03:35;;;;;;;6.72;3.12;;;22.90;87.60;;;;;;4420786;32;20004;-66
2022/08/05 03:06:03;;;;;;;8.35;3.90;;;22.90;85.50;;;;;;4422494;32;20070;-67
2022/08/05 03:08:31;;;;;;;4.97;2.90;;;23.20;84.30;;;;;;4414132;32;19989;-67
2022/08/05 03:10:58;;;;;;;5.40;2.83;;;23.20;83.60;;;;;;4422424;32;19958;-67
2022/08/05 03:13:24;;;;;;;4.87;2.97;;;23.20;85.30;;;;;;4417399;32;20044;-67
2022/08/05 03:15:51;;;;;;;4.12;2.72;;;23.20;83.70;;;;;;4419053;32;19960;-67
2022/08/05 03:18:18;;;;;;;4.45;2.80;;;23.10;87.10;;;;;;4421012;32;20036;-67
2022/08/05 03:20:44;;;;;;;5.62;3.08;;;23.00;86.30;;;;;;4422013;32;19993;-67
2022/08/05 03:23:14;;;;;;;4.85;3.17;;;22.70;87.40;;;;;;4418257;32;20018;-67
2022/08/05 03:25:41;;;;;;;4.90;3.45;;;22.50;88.10;;;;;;4422138;32;19994;-67
2022/08/05 03:28:09;;;;;;;5.40;3.33;;;22.60;87.40;;;;;;4421958;32;19959;-67
2022/08/05 03:30:37;;;;;;;6.62;3.50;;;22.70;86.80;;;;;;4421859;32;20006;-67
2022/08/05 03:33:05;;;;;;;4.62;3.30;;;22.70;86.80;;;;;;4421605;32;19993;-67
2022/08/05 03:35:33;;;;;;;5.05;3.20;;;22.70;86.10;;;;;;4413389;32;19954;-67
2022/08/05 03:38:00;;;;;;;3.55;2.92;;;22.70;86.40;;;;;;4421942;32;19956;-67
2022/08/05 03:40:28;;;;;;;4.53;3.42;;;22.80;85.90;;;;;;4417766;32;20011;-67
2022/08/05 03:42:55;;;;;;;5.62;3.80;;;22.80;86.30;;;;;;4419981;32;20019;-67
2022/08/05 03:45:22;;;;;;;5.07;3.55;;;22.80;86.00;;;;;;4418511;32;19987;-67
2022/08/05 03:47:48;;;;;;;6.00;3.50;;;22.80;86.30;;;;;;4419092;32;19959;-67
2022/08/05 03:50:15;;;;;;;4.90;3.55;;;22.80;87.80;;;;;;4421300;32;19971;-67
2022/08/05 03:52:48;;;;;;;5.65;3.80;;;22.80;85.80;;;;;;4416823;32;19995;-67
2022/08/05 03:55:21;;;;;;;5.45;3.10;;;22.80;86.60;;;;;;4419621;32;19992;-67
2022/08/05 03:57:51;;;;;;;6.18;3.50;;;22.80;86.10;;;;;;4419113;32;19963;-67
2022/08/05 04:00:24;;;;;;;8.27;3.42;;;22.80;85.30;;;;;;4421632;32;20005;-67
2022/08/05 04:02:53;;;;;;;6.22;3.30;;;22.80;86.30;;;;;;4414157;32;19973;-67
2022/08/05 04:05:20;;;;;;;6.68;3.28;;;22.80;88.30;;;;;;4418363;32;19959;-67
2022/08/05 04:07:48;;;;;;;5.00;3.35;;;22.70;88.00;;;;;;4418362;32;20023;-67
2022/08/05 04:10:16;;;;;;;4.93;3.50;;;22.70;87.00;;;;;;4421235;32;19953;-67
2022/08/05 04:12:43;;;;;;;5.12;3.50;;;22.70;86.80;;;;;;4421420;32;20018;-67
2022/08/05 04:15:12;;;;;;;5.12;3.42;;;22.70;89.60;;;;;;4421233;32;20021;-67
2022/08/05 04:17:39;;;;;;;7.05;3.50;;;22.80;87.30;;;;;;4419671;32;19993;-67
2022/08/05 04:20:06;;;;;;;5.78;3.12;;;22.70;86.30;;;;;;4419097;32;20045;-67
2022/08/05 04:22:33;;;;;;;4.78;3.30;;;22.80;86.10;;;;;;4416664;32;19954;-67
2022/08/05 04:25:00;;;;;;;7.75;3.40;;;22.80;87.30;;;;;;4421218;32;20002;-67
2022/08/05 04:27:26;;;;;;;6.78;3.40;;;22.80;87.80;;;;;;4421161;32;19961;-67
2022/08/05 04:29:53;;;;;;;7.07;3.33;;;22.80;87.80;;;;;;4421049;32;20028;-67
2022/08/05 04:32:21;;;;;;;9.00;3.97;;;22.90;86.40;;;;;;4420859;32;19989;-69
2022/08/05 04:34:47;;;;;;;9.65;3.40;;;23.10;86.60;;;;;;4420991;32;20020;-67
2022/08/05 04:37:14;;;;;;;6.68;2.95;;;23.20;85.20;;;;;;4420757;32;20002;-67
2022/08/05 04:39:41;;;;;;;6.25;3.15;;;23.30;85.50;;;;;;4420827;32;19990;-67
2022/08/05 04:42:09;;;;;;;7.50;3.75;;;23.30;85.90;;;;;;4421076;32;19963;-66
2022/08/05 04:44:35;;;;;;;5.87;3.28;;;23.30;86.90;;;;;;4420919;32;19963;-66
2022/08/05 04:47:02;;;;;;;6.60;3.25;;;23.30;85.40;;;;;;4420927;32;19969;-67
2022/08/05 04:49:30;;;;;;;7.15;3.67;;;23.40;85.60;;;;;;4420823;32;19973;-67
2022/08/05 04:51:56;;;;;;;5.55;3.45;;;23.40;87.10;;;;;;4420907;32;19963;-66
2022/08/05 04:54:25;;;;;;;4.68;3.17;;;23.40;85.80;;;;;;4419973;32;20016;-66
2022/08/05 04:56:52;;;;;;;6.47;3.45;;;23.50;86.80;;;;;;4418814;32;20141;-67
2022/08/05 04:59:21;;;;;;;6.68;3.65;;;23.50;90.00;;;;;;4418146;32;19969;-67
2022/08/05 05:01:47;;;;;;;10.77;4.62;;;23.50;91.20;;;;;;4420099;32;19991;-68
2022/08/05 05:04:14;;;;;;;6.97;4.20;;;23.40;94.90;;;;;;4419562;32;20003;-68
2022/08/05 05:06:42;;;;;;;11.30;4.78;;;23.20;94.70;;;;;;4418642;32;19989;-68
2022/08/05 05:09:11;;;;;;;7.72;4.03;;;23.20;96.10;;;;;;4417984;32;19961;-68
2022/08/05 05:11:37;;;;;;;10.10;4.50;;;23.00;94.90;;;;;;4419851;32;19954;-67
2022/08/05 05:14:05;;;;;;;8.07;4.50;;;22.90;95.70;;;;;;4419537;32;19990;-68
2022/08/05 05:16:32;;;;;;;7.55;4.22;;;22.60;96.00;;;;;;4420462;32;19954;-68
2022/08/05 05:18:58;;;;;;;8.65;4.00;;;22.40;97.30;;;;;;4420599;32;20013;-67
2022/08/05 05:21:25;;;;;;;5.70;3.45;;;22.30;97.50;;;;;;4417994;32;19956;-67
2022/08/05 05:23:53;;;;;;;8.85;4.10;;;22.30;96.30;;;;;;4415988;32;19969;-68
2022/08/05 05:26:20;;;;;;;9.05;4.43;;;22.20;98.20;;;;;;4418711;32;19993;-67
2022/08/05 05:28:47;;;;;;;8.15;4.43;;;21.70;98.80;;;;;;4411708;32;19970;-67
2022/08/05 05:31:13;;;;;;;7.12;4.18;;;21.80;98.70;;;;;;4419186;32;19983;-68
2022/08/05 05:33:40;;;;;;;8.05;4.40;;;22.00;99.60;;;;;;4420267;32;19993;-66
2022/08/05 05:36:07;;;;;;;5.57;4.28;;;22.30;99.60;;;;;;4419475;32;20023;-66
2022/08/05 05:38:34;;;;;;;6.03;3.97;;;22.50;99.50;;;;;;4420281;32;20136;-66
2022/08/05 05:41:02;;;;;;;7.18;4.22;;;22.60;98.80;;;;;;4414395;32;19969;-66
2022/08/05 05:43:29;;;;;;;8.68;4.18;;;22.70;99.90;;;;;;4417590;32;19963;-66
2022/08/05 05:45:55;;;;;;;7.80;4.47;;;22.70;99.90;;;;;;4420321;32;20000;-67
2022/08/05 05:48:22;;;;;;;7.00;3.83;;;22.40;99.60;;;;;;4420166;32;19955;-66
2022/08/05 05:50:51;;;;;;;4.70;3.78;;;22.40;99.30;;;;;;4418153;32;19988;-66
2022/08/05 05:53:17;;;;;;;5.93;4.12;;;22.70;99.40;;;;;;4420140;32;19970;-66
2022/08/05 05:55:45;;;;;;;6.30;3.75;;;23.20;99.10;;;;;;4420118;32;19987;-67
2022/08/05 05:58:13;;;;;;;5.43;3.50;;;23.50;97.00;;;;;;4420414;32;20001;-67
2022/08/05 06:00:40;;;;;;;5.72;3.58;;;23.60;95.50;;;;;;4420139;32;19987;-67
2022/08/05 06:03:08;;;;;;;5.28;3.03;;;23.50;95.70;;;;;;4413045;32;19963;-67
2022/08/05 06:05:35;;;;;;;5.53;3.08;;;23.60;94.90;;;;;;4420033;32;19956;-67
2022/08/05 06:08:02;;;;;;;4.35;2.65;;;24.30;94.20;;;;;;4418912;32;19995;-67
2022/08/05 06:10:28;;;;;;;7.50;3.45;;;25.80;92.20;;;;;;4420186;32;19951;-67
2022/08/05 06:12:55;;;;;;;5.35;3.17;;;27.00;91.60;;;;;;4420042;32;19970;-67
2022/08/05 06:15:23;;;;;;;4.30;3.00;;;28.90;87.30;;;;;;4420211;32;19991;-67
2022/08/05 06:17:49;;;;;;;4.85;3.15;;;30.50;83.10;;;;;;4416589;32;20025;-67
2022/08/05 06:20:16;;;;;;;7.15;2.78;;;31.40;79.90;;;;;;4420063;32;20012;-67
2022/08/05 06:22:43;;;;;;;5.45;2.85;;;30.60;77.50;;;;;;4420067;32;20036;-67
2022/08/05 06:25:12;;;;;;;4.28;3.10;;;29.40;82.60;;;;;;4420114;32;19979;-67
2022/08/05 06:27:38;;;;;;;8.13;3.28;;;28.70;84.50;;;;;;4420021;32;19954;-66
2022/08/05 06:30:06;;;;;;;5.53;2.95;;;28.40;87.10;;;;;;4419986;32;19993;-67
2022/08/05 06:32:34;;;;;;;5.85;3.17;;;28.20;88.90;;;;;;4418142;32;19993;-67
2022/08/05 06:35:01;;;;;;;5.00;3.28;;;28.20;87.80;;;;;;4418133;32;20138;-67
2022/08/05 06:37:28;;;;;;;4.30;3.20;;;28.50;83.80;;;;;;4419795;32;19953;-67
2022/08/05 06:39:55;;;;;;;6.43;3.67;;;28.90;84.40;;;;;;4415230;32;19959;-67
2022/08/05 06:42:22;;;;;;;7.30;3.12;;;29.10;83.40;;;;;;4419942;32;19986;-67
2022/08/05 06:44:48;;;;;;;5.37;3.03;;;29.10;81.10;;;;;;4419914;32;20158;-67
2022/08/05 06:47:15;;;;;;;5.55;3.00;;;29.00;85.70;;;;;;4418352;32;20076;-67
2022/08/05 06:49:43;;;;;;;3.37;2.70;;;29.50;81.60;;;;;;4419803;32;20147;-67
2022/08/05 06:52:09;;;;;;;5.87;3.20;;;28.40;80.30;;;;;;4412783;32;19997;-67
2022/08/05 06:54:37;;;;;;;6.45;3.12;;;27.30;83.20;;;;;;4413381;32;19995;-67
2022/08/05 06:57:04;;;;;;;5.35;2.90;;;28.10;80.20;;;;;;4414438;32;20053;-67
2022/08/05 06:59:30;;;;;;;3.33;2.60;;;29.60;78.50;;;;;;4416192;32;20077;-67
2022/08/05 07:01:57;;;;;;;4.18;3.15;;;30.50;74.70;;;;;;4417766;32;19979;-67
2022/08/05 07:04:24;;;;;;;3.53;2.35;;;30.90;76.30;;;;;;4416860;32;19961;-67
2022/08/05 07:06:51;;;;;;;4.37;2.67;;;30.60;74.50;;;;;;4416491;32;19993;-67
2022/08/05 07:09:18;;;;;;;3.92;2.65;;;30.60;76.30;;;;;;4419515;32;20051;-67
2022/08/05 07:11:45;;;;;;;3.12;2.80;;;29.80;76.70;;;;;;4419329;32;19999;-67
2022/08/05 07:16:59;;;;;;;4.60;2.90;;;30.00;72.80;;;;;;4415485;32;20023;-67
2022/08/05 07:19:27;;;;;;;26.33;4.80;;;30.10;76.20;;;;;;4417826;32;20106;-67
2022/08/05 07:21:56;;;;;;;14.87;3.50;;;30.70;75.50;;;;;;4417496;32;20003;-67
2022/08/05 07:24:23;;;;;;;7.78;2.90;;;31.00;74.70;;;;;;4412423;32;19972;-67
2022/08/05 07:26:50;;;;;;;24.73;4.55;;;31.80;71.20;;;;;;4419983;32;20015;-67
2022/08/05 07:29:17;;;;;;;18.10;4.18;;;32.30;71.50;;;;;;4422329;32;20032;-67
2022/08/05 07:31:44;;;;;;;10.18;2.85;;;32.70;68.60;;;;;;4421091;32;19981;-67
2022/08/05 07:34:10;;;;;;;22.02;3.70;;;31.80;68.60;;;;;;4422169;32;19988;-67
2022/08/05 07:36:37;;;;;;;2.97;2.45;;;31.20;67.00;;;;;;4422171;32;20024;-67
2022/08/05 07:39:07;;;;;;;2.10;1.90;;;31.40;67.00;;;;;;4418998;32;19992;-67
2022/08/05 07:41:34;;;;;;;3.60;2.20;;;30.90;68.10;;;;;;4421974;32;19964;-67
2022/08/05 07:44:02;;;;;;;3.65;2.25;;;30.50;68.10;;;;;;4421900;32;19998;-67
2022/08/05 07:46:32;;;;;;;3.97;2.50;;;30.40;69.50;;;;;;4421825;32;19990;-67
2022/08/05 07:49:01;;;;;;;3.40;2.10;;;30.70;68.00;;;;;;4420990;32;19991;-67
2022/08/05 07:51:27;;;;;;;5.00;2.17;;;31.20;67.30;;;;;;4421821;32;19968;-67
2022/08/05 07:53:54;;;;;;;3.72;2.20;;;31.30;68.00;;;;;;4421721;32;20019;-67
2022/08/05 07:56:22;;;;;;;3.17;2.10;;;32.10;67.00;;;;;;4421738;32;19963;-67
2022/08/05 07:58:49;;;;;;;2.83;2.20;;;31.90;66.00;;;;;;4421583;32;20108;-68
2022/08/05 08:01:15;;;;;;;3.30;2.10;;;32.40;64.50;;;;;;4421555;32;20071;-68
2022/08/05 08:03:42;;;;;;;3.10;2.30;;;33.70;64.30;;;;;;4421906;32;19989;-67
2022/08/05 08:06:09;;;;;;;4.78;3.22;;;34.00;60.40;;;;;;4415368;32;19993;-68
2022/08/05 08:08:36;;;;;;;6.10;2.60;;;34.00;62.70;;;;;;4421581;32;19983;-67
2022/08/05 08:11:02;;;;;;;3.53;2.10;;;34.50;59.70;;;;;;4416442;32;19961;-67
2022/08/05 08:13:30;;;;;;;3.45;2.10;;;34.50;59.50;;;;;;4420487;32;19991;-67
2022/08/05 08:15:57;;;;;;;5.30;2.70;;;34.00;60.00;;;;;;4421511;32;20036;-67
2022/08/05 08:18:24;;;;;;;8.65;2.67;;;34.10;61.10;;;;;;4420415;32;20144;-68
2022/08/05 08:20:51;;;;;;;5.68;2.30;;;34.20;61.30;;;;;;4421456;32;19988;-68
2022/08/05 08:23:18;;;;;;;4.25;2.08;;;34.30;60.70;;;;;;4421439;32;19976;-67
2022/08/05 08:25:45;;;;;;;2.67;2.17;;;35.40;56.10;;;;;;4417730;32;19977;-67
2022/08/05 08:28:12;;;;;;;4.22;2.22;;;35.20;56.10;;;;;;4421276;32;20088;-67
2022/08/05 08:30:40;;;;;;;4.10;2.08;;;36.30;55.70;;;;;;4414779;32;20133;-67
2022/08/05 08:33:10;;;;;;;2.03;1.92;;;37.00;53.10;;;;;;4418663;32;19986;-67
2022/08/05 08:35:37;;;;;;;2.27;1.70;;;37.10;53.10;;;;;;4421537;32;19993;-67
2022/08/05 08:38:04;;;;;;;2.78;1.80;;;37.00;52.30;;;;;;4421235;32;20222;-67
2022/08/05 08:40:34;;;;;;;3.10;1.80;;;36.00;53.30;;;;;;4421046;32;19991;-67
2022/08/05 08:43:01;;;;;;;2.23;2.03;;;35.50;54.30;;;;;;4421143;32;19958;-67
2022/08/05 08:45:30;;;;;;;2.47;1.70;;;35.40;55.50;;;;;;4421212;32;20162;-68
2022/08/05 08:48:01;;;;;;;3.28;1.95;;;36.00;57.50;;;;;;4421135;32;19975;-68
2022/08/05 08:50:30;;;;;;;2.30;1.75;;;36.50;55.80;;;;;;4418007;32;20124;-67
2022/08/05 08:53:03;;;;;;;3.60;1.83;;;37.40;53.80;;;;;;4416260;32;20024;-67
2022/08/05 08:55:30;;;;;;;2.65;1.80;;;37.00;52.20;;;;;;4421067;32;20019;-68
2022/08/05 08:57:58;;;;;;;3.72;1.90;;;37.10;50.40;;;;;;4418681;32;19956;-68
2022/08/05 09:00:25;;;;;;;2.53;1.95;;;36.90;51.80;;;;;;4419365;32;20146;-68
2022/08/05 09:02:53;;;;;;;2.12;1.75;;;37.20;52.10;;;;;;4419783;32;20108;-68
2022/08/05 09:05:21;;;;;;;2.53;1.92;;;37.70;55.60;;;;;;4420563;32;19997;-67
2022/08/05 09:07:48;;;;;;;2.45;2.00;;;37.10;51.90;;;;;;4419865;32;19997;-67
2022/08/05 09:10:15;;;;;;;2.20;1.92;;;38.10;53.70;;;;;;4417545;32;20006;-68
2022/08/05 09:12:42;;;;;;;2.00;1.85;;;38.70;52.20;;;;;;4417192;32;20017;-68
2022/08/05 09:15:09;;;;;;;2.20;1.80;;;38.30;48.60;;;;;;4416882;32;20007;-68
2022/08/05 09:17:36;;;;;;;4.70;2.22;;;38.60;52.70;;;;;;4419367;32;19998;-68
2022/08/05 09:20:04;;;;;;;3.25;2.00;;;38.50;53.70;;;;;;4418018;32;19976;-68
2022/08/05 09:23:10;;;;;;;3.00;2.03;;;39.00;52.30;;;;;;4420563;32;19997;-68
2022/08/05 09:25:38;;;;;;;4.07;2.33;;;38.90;53.50;;;;;;4417934;32;19981;-68
2022/08/05 09:28:13;;;;;;;3.75;2.00;;;39.10;52.00;;;;;;4420588;32;19958;-68
2022/08/05 09:30:43;;;;;;;2.30;1.90;;;39.60;53.60;;;;;;4420581;32;19963;-67
2022/08/05 09:33:10;;;;;;;3.67;2.20;;;39.10;52.20;;;;;;4420516;32;19960;-68
2022/08/05 09:35:36;;;;;;;2.40;2.20;;;40.00;49.50;;;;;;4419996;32;19993;-68
2022/08/05 09:38:07;;;;;;;3.55;2.12;;;39.50;51.20;;;;;;4420530;32;20138;-68
2022/08/05 09:40:36;;;;;;;3.62;2.20;;;39.40;53.10;;;;;;4419505;32;20038;-68
2022/08/05 09:43:05;;;;;;;3.80;2.00;;;40.30;51.90;;;;;;4420433;32;19978;-68
2022/08/05 09:45:40;;;;;;;2.40;2.08;;;40.60;50.90;;;;;;4420333;32;19965;-68
2022/08/05 09:48:20;;;;;;;7.53;2.40;;;40.40;50.30;;;;;;4420071;32;20111;-68
2022/08/05 09:50:50;;;;;;;4.85;2.12;;;41.10;47.60;;;;;;4419204;32;19987;-67
2022/08/05 09:53:18;;;;;;;2.80;2.00;;;37.50;48.60;;;;;;4417757;32;20104;-68
2022/08/05 09:55:45;;;;;;;3.62;2.20;;;39.40;51.70;;;;;;4416502;32;19961;-68
2022/08/05 09:58:13;;;;;;;6.55;2.40;;;41.40;50.40;;;;;;4420319;32;20040;-68
2022/08/05 10:00:40;;;;;;;3.10;1.95;;;42.00;48.00;;;;;;4414426;32;19989;-68
2022/08/05 10:03:11;;;;;;;4.30;2.28;;;42.70;44.80;;;;;;4420596;32;20022;-68
2022/08/05 10:05:40;;;;;;;2.90;1.98;;;44.10;46.40;;;;;;4419495;32;19963;-68
2022/08/05 10:08:07;;;;;;;2.20;2.00;;;43.90;45.50;;;;;;4418979;32;19963;-68
2022/08/05 10:10:38;;;;;;;2.35;2.10;;;45.20;43.60;;;;;;4417175;32;19988;-67
2022/08/05 10:13:06;;;;;;;2.62;2.00;;;45.60;41.90;;;;;;4420116;32;20138;-67
2022/08/05 10:15:34;;;;;;;2.17;2.03;;;45.70;44.30;;;;;;4417036;32;19996;-67
2022/08/05 10:18:21;;;;;;;2.97;2.17;;;45.00;42.70;;;;;;4419986;32;20021;-67
2022/08/05 10:20:49;;;;;;;3.20;2.10;;;42.40;46.70;;;;;;4410825;32;19963;-67
2022/08/05 10:23:18;;;;;;;3.65;2.00;;;42.90;46.10;;;;;;4418703;32;19984;-67
2022/08/05 10:25:46;;;;;;;2.78;2.00;;;43.30;45.20;;;;;;4415187;32;20002;-67
2022/08/05 10:28:13;;;;;;;4.18;2.10;;;43.00;42.50;;;;;;4419927;32;19989;-67
2022/08/05 10:30:40;;;;;;;2.25;2.05;;;43.00;44.10;;;;;;4420002;32;19965;-67
2022/08/05 10:33:07;;;;;;;3.05;2.20;;;42.40;44.70;;;;;;4419797;32;19963;-67
2022/08/05 10:35:35;;;;;;;2.53;2.22;;;41.60;45.30;;;;;;4416003;32;20026;-67
2022/08/05 10:38:03;;;;;;;3.12;2.40;;;41.50;46.50;;;;;;4418614;32;20142;-66
2022/08/05 10:40:34;;;;;;;4.43;2.40;;;41.70;47.70;;;;;;4419912;32;19997;-66
2022/08/05 10:43:11;;;;;;;3.17;2.35;;;42.00;47.10;;;;;;4415877;32;19972;-66
2022/08/05 10:45:38;;;;;;;3.37;1.90;;;41.70;48.20;;;;;;4418402;32;20005;-66
2022/08/05 10:48:31;;;;;;;3.70;2.28;;;42.10;45.60;;;;;;4415452;32;20039;-67
2022/08/05 10:50:59;;;;;;;2.92;2.22;;;41.40;47.40;;;;;;4416735;32;20001;-67
2022/08/05 10:53:43;;;;;;;2.75;2.00;;;40.90;48.50;;;;;;4417772;32;19973;-68
2022/08/05 10:56:14;;;;;;;2.10;1.90;;;41.60;47.10;;;;;;4418962;32;19991;-67
2022/08/05 10:59:05;;;;;;;3.37;2.20;;;41.60;48.20;;;;;;4418960;32;20111;-67
2022/08/05 11:01:34;;;;;;;4.00;2.30;;;41.50;47.20;;;;;;4421691;32;20001;-68
2022/08/05 11:04:10;;;;;;;2.60;2.10;;;42.50;46.30;;;;;;4416491;32;19968;-67
2022/08/05 11:07:07;;;;;;;4.28;2.60;;;42.10;46.70;;;;;;4422786;32;19972;-67
2022/08/05 11:09:42;;;;;;;3.58;2.25;;;42.20;47.60;;;;;;4421066;32;19972;-68
2022/08/05 11:12:44;;;;;;;2.67;2.25;;;42.40;45.70;;;;;;4417515;32;19983;-68
2022/08/05 11:15:18;;;;;;;4.47;2.10;;;43.10;44.50;;;;;;4419382;32;19963;-68
2022/08/05 11:17:46;;;;;;;3.35;2.10;;;41.50;48.50;;;;;;4412494;32;20013;-67
2022/08/05 11:20:37;;;;;;;6.90;2.50;;;41.50;48.60;;;;;;4420392;32;19989;-67
2022/08/05 11:23:34;;;;;;;3.10;2.20;;;42.20;44.00;;;;;;4422440;32;19994;-67
2022/08/05 11:26:07;;;;;;;3.47;2.30;;;42.00;45.60;;;;;;4418146;32;20052;-69
2022/08/05 11:28:46;;;;;;;3.67;2.50;;;43.20;45.40;;;;;;4422544;32;20016;-68
2022/08/05 11:31:29;;;;;;;3.67;2.20;;;42.40;46.50;;;;;;4421138;32;19969;-67
2022/08/05 11:34:07;;;;;;;3.70;2.50;;;42.70;44.00;;;;;;4420401;32;19992;-67
2022/08/05 11:36:45;;;;;;;2.70;2.05;;;42.50;46.40;;;;;;4419259;32;19970;-68
2022/08/05 11:39:13;;;;;;;5.50;2.30;;;42.10;46.90;;;;;;4422488;32;19963;-67
2022/08/05 11:41:40;;;;;;;3.47;2.42;;;42.40;46.00;;;;;;4422184;32;19977;-69
2022/08/05 11:44:11;;;;;;;4.03;2.20;;;42.30;46.70;;;;;;4422248;32;20007;-68
2022/08/05 11:46:41;;;;;;;3.30;2.12;;;41.00;48.00;;;;;;4422153;32;19963;-68
2022/08/05 11:49:12;;;;;;;3.78;2.00;;;40.60;47.90;;;;;;4421004;32;19989;-68
2022/08/05 11:51:42;;;;;;;2.92;2.30;;;40.50;48.70;;;;;;4422073;32;19993;-68
2022/08/05 11:54:10;;;;;;;3.20;2.30;;;39.10;50.50;;;;;;4419042;32;19961;-67
2022/08/05 11:56:44;;;;;;;3.70;2.12;;;39.50;49.00;;;;;;4418227;32;19992;-67
2022/08/05 11:59:14;;;;;;;3.10;2.20;;;38.80;50.70;;;;;;4422116;32;19958;-67
2022/08/05 12:01:54;;;;;;;4.95;2.40;;;39.00;50.50;;;;;;4422230;32;19996;-67
2022/08/05 12:04:21;;;;;;;2.60;2.33;;;38.40;52.00;;;;;;4421452;32;19970;-67
2022/08/05 12:06:48;;;;;;;2.30;2.05;;;38.30;52.40;;;;;;4421869;32;19988;-67
2022/08/05 12:09:19;;;;;;;3.30;2.10;;;38.00;50.50;;;;;;4422055;32;19979;-68
2022/08/05 12:11:46;;;;;;;4.43;2.65;;;38.10;50.90;;;;;;4417696;32;19974;-67
2022/08/05 12:14:12;;;;;;;3.90;2.30;;;38.00;51.50;;;;;;4421804;32;20033;-67
2022/08/05 12:16:41;;;;;;;7.25;2.47;;;36.50;56.40;;;;;;4421502;32;20002;-67
2022/08/05 12:19:11;;;;;;;2.78;2.30;;;36.70;55.50;;;;;;4420579;32;20014;-67
2022/08/05 12:21:44;;;;;;;2.47;2.17;;;36.10;55.20;;;;;;4417352;32;20012;-68
2022/08/05 12:24:13;;;;;;;3.00;2.05;;;36.80;53.80;;;;;;4418769;32;19991;-68
2022/08/05 12:26:41;;;;;;;4.37;2.33;;;37.10;55.80;;;;;;4421679;32;19974;-67
2022/08/05 12:29:11;;;;;;;3.58;2.42;;;36.60;54.50;;;;;;4421496;32;20106;-67
2022/08/05 12:31:38;;;;;;;8.02;2.28;;;36.60;52.60;;;;;;4413078;32;20077;-67
2022/08/05 12:34:08;;;;;;;3.92;2.47;;;36.40;54.70;;;;;;4421605;32;19996;-67
2022/08/05 12:36:36;;;;;;;3.20;2.22;;;36.40;54.50;;;;;;4421464;32;20019;-67
2022/08/05 12:39:05;;;;;;;4.53;2.22;;;35.80;55.10;;;;;;4421678;32;19984;-67
2022/08/05 12:41:32;;;;;;;2.80;2.20;;;35.40;56.40;;;;;;4421412;32;19990;-67
2022/08/05 12:44:03;;;;;;;4.62;2.47;;;35.70;54.10;;;;;;4421354;32;19960;-67
2022/08/05 12:46:31;;;;;;;;;;;36.00;54.60;;;;;;4416352;32;20070;-67
2022/08/05 12:49:00;;;;;;;3.22;2.10;;;36.30;55.20;;;;;;4421383;32;19917;-67
2022/08/05 12:51:27;;;;;;;3.80;2.50;;;36.00;53.70;;;;;;4421462;32;19962;-67
2022/08/05 12:54:02;;;;;;;4.97;2.42;;;36.30;53.50;;;;;;4418337;32;19966;-67
2022/08/05 12:56:30;;;;;;;3.85;2.20;;;36.50;55.20;;;;;;4421287;32;20122;-67
2022/08/05 12:59:14;;;;;;;4.25;2.50;;;36.20;55.10;;;;;;4421202;32;19995;-68
2022/08/05 13:01:42;;;;;;;5.15;2.58;;;35.80;55.00;;;;;;4418619;32;20002;-67